Minerva Grace — SVBN7 — position and weather

sailwx.info

Track history (hours):
 
Tides and Currents Weather Stations Pressure Air Temp Water Temp Dewpoint Dewpoint Depression Visibility Wind Speed Wind Dir Waves Ship Positions

Minerva Grace

Last reported at 2015-Jun-19 18:33 UTC. Time now 2015-Jul-07 15:27 UTC.
Position N 37°26' E 023°40'.
Warning: this ship's position is 17 days out of date.

Length 183 m; draft 8.2 m.

Type: Ship. MMSI: 241193000.

Date/timePositionNaut miles runAvg speedWind from/ knotsBaromVisibWave heightAir tempDewpointWater temp
2015-Jun-19 18:33N 37°26' E 023°40'1111.0
2015-Jun-19 17:33N 37°37' E 023°42'1111.3
2015-Jun-19 16:33N 37°48' E 023°38'7 6.8
2015-Jun-19 15:31N 37°53' E 023°31'0 0.0
2015-Jun-19 14:31N 37°53' E 023°31'0 0.0
2015-Jun-19 13:30N 37°53' E 023°31'0 0.0
2015-Jun-19 12:33N 37°53' E 023°31'0 0.0
2015-Jun-19 11:31N 37°53' E 023°31'0 0.2
2015-Jun-19 10:31N 37°53' E 023°31'0 0.1
2015-Jun-19 09:31N 37°53' E 023°31'0 0.0
2015-Jun-19 08:31N 37°53' E 023°31'0 0.0
2015-Jun-19 07:31N 37°53' E 023°31'0 0.0
2015-Jun-19 06:31N 37°53' E 023°31'0 0.0
2015-Jun-19 05:31N 37°53' E 023°31'0 0.0
2015-Jun-19 04:31N 37°53' E 023°31'0 0.0
2015-Jun-19 03:31N 37°53' E 023°31'0 0.0
2015-Jun-19 02:31N 37°53' E 023°31'0 0.0
2015-Jun-19 01:28N 37°53' E 023°31'0 0.0
2015-Jun-19 00:31N 37°53' E 023°31'0 0.0
2015-Jun-18 23:31N 37°53' E 023°31'0 0.0
2015-Jun-18 22:31N 37°53' E 023°31'0 0.0
2015-Jun-18 21:31N 37°53' E 023°31'0 0.0
2015-Jun-18 20:31N 37°53' E 023°31'0 0.1
2015-Jun-18 19:31N 37°53' E 023°31'0 0.1
2015-Jun-18 18:31N 37°53' E 023°31'0 0.0
2015-Jun-18 17:31N 37°53' E 023°31'0 0.1
2015-Jun-18 16:31N 37°53' E 023°31'0 0.1
2015-Jun-18 15:31N 37°53' E 023°31'0 0.1
2015-Jun-18 14:31N 37°53' E 023°31'0 0.1
2015-Jun-18 13:31N 37°53' E 023°31'0 0.1
2015-Jun-18 12:31N 37°53' E 023°31'0 0.1
2015-Jun-18 11:31N 37°53' E 023°31'0 0.1
2015-Jun-18 10:31N 37°53' E 023°31'0 0.1
2015-Jun-18 09:31N 37°53' E 023°31'0 0.1
2015-Jun-18 08:31N 37°53' E 023°31'0 0.0
2015-Jun-18 07:31N 37°53' E 023°31'0 0.0
2015-Jun-18 06:33N 37°53' E 023°31'0 0.2
2015-Jun-18 05:33N 37°53' E 023°31'0 0.1
2015-Jun-18 04:33N 37°53' E 023°31'0 0.0
2015-Jun-18 03:33N 37°53' E 023°31'0 0.0
2015-Jun-18 02:33N 37°53' E 023°31'0 0.0
2015-Jun-18 01:33N 37°53' E 023°31'0 0.0
2015-Jun-18 00:33N 37°53' E 023°31'0 0.0
2015-Jun-17 23:33N 37°53' E 023°31'0 0.2
2015-Jun-17 22:33N 37°53' E 023°31'0 0.0
2015-Jun-17 21:33N 37°53' E 023°31'0 0.0
2015-Jun-17 20:33N 37°53' E 023°31'0 0.0
2015-Jun-17 19:33N 37°53' E 023°31'0 0.0
2015-Jun-17 18:33N 37°53' E 023°31'0 0.1
2015-Jun-17 17:33N 37°53' E 023°31'0 0.0
2015-Jun-17 16:33N 37°53' E 023°31'3 3.1
2015-Jun-17 15:33N 37°52' E 023°35'9 9.5
2015-Jun-17 14:33N 37°45' E 023°42'1110.9
2015-Jun-17 13:33N 37°35' E 023°49'5 4.3
2015-Jun-17 12:22N 37°31' E 023°52'0 0.0
2015-Jun-17 11:28N 37°31' E 023°52'0 0.0
2015-Jun-17 10:31N 37°31' E 023°52'0 0.0
2015-Jun-17 09:28N 37°31' E 023°52'0 0.0
2015-Jun-17 08:31N 37°31' E 023°52'0 0.0
2015-Jun-17 07:31N 37°31' E 023°52'0 0.0
2015-Jun-17 06:31N 37°31' E 023°52'0 0.0
2015-Jun-17 05:31N 37°31' E 023°52'0 0.0
2015-Jun-17 04:31N 37°31' E 023°52'0 0.0
2015-Jun-17 03:31N 37°31' E 023°52'0 0.0
2015-Jun-17 02:31N 37°31' E 023°52'0 0.0
2015-Jun-17 01:31N 37°31' E 023°52'0 0.1
2015-Jun-17 00:31N 37°31' E 023°52'0 0.0
2015-Jun-16 23:28N 37°31' E 023°52'0 0.0
2015-Jun-16 22:31N 37°31' E 023°52'0 0.0
2015-Jun-16 21:31N 37°31' E 023°52'0 0.0
2015-Jun-16 20:31N 37°31' E 023°52'0 0.0
2015-Jun-16 19:31N 37°31' E 023°52'0 0.0
2015-Jun-16 18:31N 37°31' E 023°52'0 0.0
2015-Jun-16 17:31N 37°31' E 023°52'0 0.0
2015-Jun-16 16:31N 37°31' E 023°52'0 0.0
2015-Jun-16 15:28N 37°31' E 023°52'0 0.0
2015-Jun-16 14:31N 37°31' E 023°52'0 0.0
2015-Jun-16 13:25N 37°31' E 023°52'0 0.0
2015-Jun-16 12:31N 37°31' E 023°52'0 0.0
2015-Jun-16 11:31N 37°31' E 023°52'0 0.0
2015-Jun-16 10:31N 37°31' E 023°52'0 0.0
2015-Jun-16 09:31N 37°31' E 023°52'0 0.1
2015-Jun-16 08:31N 37°31' E 023°52'0 0.1
2015-Jun-16 07:31N 37°31' E 023°52'0 0.1
2015-Jun-16 06:31N 37°31' E 023°52'0 0.0
2015-Jun-16 05:31N 37°31' E 023°52'0 0.0
2015-Jun-16 04:31N 37°31' E 023°52'0 0.0
2015-Jun-16 03:31N 37°31' E 023°52'0 0.0
2015-Jun-16 02:31N 37°31' E 023°52'0 0.1
2015-Jun-16 01:31N 37°31' E 023°52'0 0.0
2015-Jun-16 00:31N 37°31' E 023°52'0 0.0
2015-Jun-15 23:31N 37°31' E 023°52'0 0.1
2015-Jun-15 22:31N 37°31' E 023°52'0 0.0
2015-Jun-15 21:31N 37°31' E 023°52'0 0.1
2015-Jun-15 20:31N 37°31' E 023°52'0 0.0
2015-Jun-15 19:31N 37°31' E 023°52'0 0.0
2015-Jun-15 18:31N 37°31' E 023°52'0 0.0
2015-Jun-15 17:31N 37°31' E 023°52'0 0.0
2015-Jun-15 16:31N 37°31' E 023°52'0 0.0
2015-Jun-15 15:31N 37°31' E 023°52'0 0.0
2015-Jun-15 14:31N 37°31' E 023°52'0 0.0
2015-Jun-15 13:25N 37°31' E 023°52'0 0.0
2015-Jun-15 12:25N 37°31' E 023°52'0 0.0
2015-Jun-15 11:31N 37°31' E 023°52'0 0.0
2015-Jun-15 10:31N 37°31' E 023°52'0 0.0
2015-Jun-15 08:31N 37°31' E 023°52'0 0.0
2015-Jun-15 07:28N 37°31' E 023°52'0 0.1
2015-Jun-15 06:31N 37°31' E 023°52'0 0.0
2015-Jun-15 05:31N 37°31' E 023°52'0 0.0
2015-Jun-15 04:31N 37°31' E 023°52'0 0.1
2015-Jun-15 03:28N 37°31' E 023°52'0 0.0
2015-Jun-15 02:31N 37°31' E 023°52'0 0.0
2015-Jun-15 01:31N 37°31' E 023°52'0 0.0
2015-Jun-15 00:28N 37°31' E 023°52'0 0.0
2015-Jun-14 23:31N 37°31' E 023°52'0 0.0
2015-Jun-14 22:31N 37°31' E 023°52'0 0.0
2015-Jun-14 21:31N 37°31' E 023°52'0 0.0
2015-Jun-14 20:28N 37°31' E 023°52'0 0.0
2015-Jun-14 19:28N 37°31' E 023°52'0 0.0
2015-Jun-14 18:31N 37°31' E 023°52'0 0.0
2015-Jun-14 17:31N 37°31' E 023°52'0 0.0
2015-Jun-14 16:31N 37°31' E 023°52'0 0.0
2015-Jun-14 15:10N 37°31' E 023°52'0 0.0
2015-Jun-14 14:31N 37°31' E 023°52'0 0.0
2015-Jun-14 13:31N 37°31' E 023°52'0 0.0
2015-Jun-14 12:31N 37°31' E 023°52'0 0.1
2015-Jun-14 10:31N 37°31' E 023°52'0 0.1
2015-Jun-14 09:31N 37°31' E 023°52'0 0.1
2015-Jun-14 08:28N 37°31' E 023°52'0 0.0
2015-Jun-14 07:22N 37°31' E 023°52'0 0.0
2015-Jun-14 06:19N 37°31' E 023°52'0 0.0
2015-Jun-14 05:31N 37°31' E 023°52'0 0.0
2015-Jun-14 04:31N 37°31' E 023°52'0 0.0
2015-Jun-14 03:31N 37°31' E 023°52'0 0.0
2015-Jun-14 02:25N 37°31' E 023°52'0 0.0
2015-Jun-14 01:31N 37°31' E 023°52'0 0.0
2015-Jun-14 00:31N 37°31' E 023°52'0 0.0
2015-Jun-13 23:31N 37°31' E 023°52'0 0.0
2015-Jun-13 22:31N 37°31' E 023°52'0 0.0
2015-Jun-13 21:19N 37°31' E 023°52'0 0.3
2015-Jun-13 20:34N 37°31' E 023°53'  
2015-Jun-10 13:33N 37°33' E 024°03'1712.5
2015-Jun-10 12:13N 37°18' E 023°55'912.6
2015-Jun-10 11:29N 37°10' E 023°50'1213.0
2015-Jun-10 10:33N 36°59' E 023°42'  
Track history (hours):
 
Tides and Currents Weather Stations Pressure Air Temp Water Temp Dewpoint Dewpoint Depression Visibility Wind Speed Wind Dir Waves Ship Positions

Minerva Grace

Last reported at 2015-Jun-19 18:33 UTC. Time now 2015-Jul-07 15:27 UTC.
Position N 37°26' E 023°40'.
Warning: this ship's position is 17 days out of date.

Length 183 m; draft 8.2 m.

Type: Ship. MMSI: 241193000.

Date/timePositionNaut miles runAvg speedWind from/ knotsBaromVisibWave heightAir tempDewpointWater temp
2015-Jun-19 18:33N 37°26' E 023°40'1111.0
2015-Jun-19 17:33N 37°37' E 023°42'1111.3
2015-Jun-19 16:33N 37°48' E 023°38'7 6.8
2015-Jun-19 15:31N 37°53' E 023°31'0 0.0
2015-Jun-19 14:31N 37°53' E 023°31'0 0.0
2015-Jun-19 13:30N 37°53' E 023°31'0 0.0
2015-Jun-19 12:33N 37°53' E 023°31'0 0.0
2015-Jun-19 11:31N 37°53' E 023°31'0 0.2
2015-Jun-19 10:31N 37°53' E 023°31'0 0.1
2015-Jun-19 09:31N 37°53' E 023°31'0 0.0
2015-Jun-19 08:31N 37°53' E 023°31'0 0.0
2015-Jun-19 07:31N 37°53' E 023°31'0 0.0
2015-Jun-19 06:31N 37°53' E 023°31'0 0.0
2015-Jun-19 05:31N 37°53' E 023°31'0 0.0
2015-Jun-19 04:31N 37°53' E 023°31'0 0.0
2015-Jun-19 03:31N 37°53' E 023°31'0 0.0
2015-Jun-19 02:31N 37°53' E 023°31'0 0.0
2015-Jun-19 01:28N 37°53' E 023°31'0 0.0
2015-Jun-19 00:31N 37°53' E 023°31'0 0.0
2015-Jun-18 23:31N 37°53' E 023°31'0 0.0
2015-Jun-18 22:31N 37°53' E 023°31'0 0.0
2015-Jun-18 21:31N 37°53' E 023°31'0 0.0
2015-Jun-18 20:31N 37°53' E 023°31'0 0.1
2015-Jun-18 19:31N 37°53' E 023°31'0 0.1
2015-Jun-18 18:31N 37°53' E 023°31'0 0.0
2015-Jun-18 17:31N 37°53' E 023°31'0 0.1
2015-Jun-18 16:31N 37°53' E 023°31'0 0.1
2015-Jun-18 15:31N 37°53' E 023°31'0 0.1
2015-Jun-18 14:31N 37°53' E 023°31'0 0.1
2015-Jun-18 13:31N 37°53' E 023°31'0 0.1
2015-Jun-18 12:31N 37°53' E 023°31'0 0.1
2015-Jun-18 11:31N 37°53' E 023°31'0 0.1
2015-Jun-18 10:31N 37°53' E 023°31'0 0.1
2015-Jun-18 09:31N 37°53' E 023°31'0 0.1
2015-Jun-18 08:31N 37°53' E 023°31'0 0.0
2015-Jun-18 07:31N 37°53' E 023°31'0 0.0
2015-Jun-18 06:33N 37°53' E 023°31'0 0.2
2015-Jun-18 05:33N 37°53' E 023°31'0 0.1
2015-Jun-18 04:33N 37°53' E 023°31'0 0.0
2015-Jun-18 03:33N 37°53' E 023°31'0 0.0
2015-Jun-18 02:33N 37°53' E 023°31'0 0.0
2015-Jun-18 01:33N 37°53' E 023°31'0 0.0
2015-Jun-18 00:33N 37°53' E 023°31'0 0.0
2015-Jun-17 23:33N 37°53' E 023°31'0 0.2
2015-Jun-17 22:33N 37°53' E 023°31'0 0.0
2015-Jun-17 21:33N 37°53' E 023°31'0 0.0
2015-Jun-17 20:33N 37°53' E 023°31'0 0.0
2015-Jun-17 19:33N 37°53' E 023°31'0 0.0
2015-Jun-17 18:33N 37°53' E 023°31'0 0.1
2015-Jun-17 17:33N 37°53' E 023°31'0 0.0
2015-Jun-17 16:33N 37°53' E 023°31'3 3.1
2015-Jun-17 15:33N 37°52' E 023°35'9 9.5
2015-Jun-17 14:33N 37°45' E 023°42'1110.9
2015-Jun-17 13:33N 37°35' E 023°49'5 4.3
2015-Jun-17 12:22N 37°31' E 023°52'0 0.0
2015-Jun-17 11:28N 37°31' E 023°52'0 0.0
2015-Jun-17 10:31N 37°31' E 023°52'0 0.0
2015-Jun-17 09:28N 37°31' E 023°52'0 0.0
2015-Jun-17 08:31N 37°31' E 023°52'0 0.0
2015-Jun-17 07:31N 37°31' E 023°52'0 0.0
2015-Jun-17 06:31N 37°31' E 023°52'0 0.0
2015-Jun-17 05:31N 37°31' E 023°52'0 0.0
2015-Jun-17 04:31N 37°31' E 023°52'0 0.0
2015-Jun-17 03:31N 37°31' E 023°52'0 0.0
2015-Jun-17 02:31N 37°31' E 023°52'0 0.0
2015-Jun-17 01:31N 37°31' E 023°52'0 0.1
2015-Jun-17 00:31N 37°31' E 023°52'0 0.0
2015-Jun-16 23:28N 37°31' E 023°52'0 0.0
2015-Jun-16 22:31N 37°31' E 023°52'0 0.0
2015-Jun-16 21:31N 37°31' E 023°52'0 0.0
2015-Jun-16 20:31N 37°31' E 023°52'0 0.0
2015-Jun-16 19:31N 37°31' E 023°52'0 0.0
2015-Jun-16 18:31N 37°31' E 023°52'0 0.0
2015-Jun-16 17:31N 37°31' E 023°52'0 0.0
2015-Jun-16 16:31N 37°31' E 023°52'0 0.0
2015-Jun-16 15:28N 37°31' E 023°52'0 0.0
2015-Jun-16 14:31N 37°31' E 023°52'0 0.0
2015-Jun-16 13:25N 37°31' E 023°52'0 0.0
2015-Jun-16 12:31N 37°31' E 023°52'0 0.0
2015-Jun-16 11:31N 37°31' E 023°52'0 0.0
2015-Jun-16 10:31N 37°31' E 023°52'0 0.0
2015-Jun-16 09:31N 37°31' E 023°52'0 0.1
2015-Jun-16 08:31N 37°31' E 023°52'0 0.1
2015-Jun-16 07:31N 37°31' E 023°52'0 0.1
2015-Jun-16 06:31N 37°31' E 023°52'0 0.0
2015-Jun-16 05:31N 37°31' E 023°52'0 0.0
2015-Jun-16 04:31N 37°31' E 023°52'0 0.0
2015-Jun-16 03:31N 37°31' E 023°52'0 0.0
2015-Jun-16 02:31N 37°31' E 023°52'0 0.1
2015-Jun-16 01:31N 37°31' E 023°52'0 0.0
2015-Jun-16 00:31N 37°31' E 023°52'0 0.0
2015-Jun-15 23:31N 37°31' E 023°52'0 0.1
2015-Jun-15 22:31N 37°31' E 023°52'0 0.0
2015-Jun-15 21:31N 37°31' E 023°52'0 0.1
2015-Jun-15 20:31N 37°31' E 023°52'0 0.0
2015-Jun-15 19:31N 37°31' E 023°52'0 0.0
2015-Jun-15 18:31N 37°31' E 023°52'0 0.0
2015-Jun-15 17:31N 37°31' E 023°52'0 0.0
2015-Jun-15 16:31N 37°31' E 023°52'0 0.0
2015-Jun-15 15:31N 37°31' E 023°52'0 0.0
2015-Jun-15 14:31N 37°31' E 023°52'0 0.0
2015-Jun-15 13:25N 37°31' E 023°52'0 0.0
2015-Jun-15 12:25N 37°31' E 023°52'0 0.0
2015-Jun-15 11:31N 37°31' E 023°52'0 0.0
2015-Jun-15 10:31N 37°31' E 023°52'0 0.0
2015-Jun-15 08:31N 37°31' E 023°52'0 0.0
2015-Jun-15 07:28N 37°31' E 023°52'0 0.1
2015-Jun-15 06:31N 37°31' E 023°52'0 0.0
2015-Jun-15 05:31N 37°31' E 023°52'0 0.0
2015-Jun-15 04:31N 37°31' E 023°52'0 0.1
2015-Jun-15 03:28N 37°31' E 023°52'0 0.0
2015-Jun-15 02:31N 37°31' E 023°52'0 0.0
2015-Jun-15 01:31N 37°31' E 023°52'0 0.0
2015-Jun-15 00:28N 37°31' E 023°52'0 0.0
2015-Jun-14 23:31N 37°31' E 023°52'0 0.0
2015-Jun-14 22:31N 37°31' E 023°52'0 0.0
2015-Jun-14 21:31N 37°31' E 023°52'0 0.0
2015-Jun-14 20:28N 37°31' E 023°52'0 0.0
2015-Jun-14 19:28N 37°31' E 023°52'0 0.0
2015-Jun-14 18:31N 37°31' E 023°52'0 0.0
2015-Jun-14 17:31N 37°31' E 023°52'0 0.0
2015-Jun-14 16:31N 37°31' E 023°52'0 0.0
2015-Jun-14 15:10N 37°31' E 023°52'0 0.0
2015-Jun-14 14:31N 37°31' E 023°52'0 0.0
2015-Jun-14 13:31N 37°31' E 023°52'0 0.0
2015-Jun-14 12:31N 37°31' E 023°52'0 0.1
2015-Jun-14 10:31N 37°31' E 023°52'0 0.1
2015-Jun-14 09:31N 37°31' E 023°52'0 0.1
2015-Jun-14 08:28N 37°31' E 023°52'0 0.0
2015-Jun-14 07:22N 37°31' E 023°52'0 0.0
2015-Jun-14 06:19N 37°31' E 023°52'0 0.0
2015-Jun-14 05:31N 37°31' E 023°52'0 0.0
2015-Jun-14 04:31N 37°31' E 023°52'0 0.0
2015-Jun-14 03:31N 37°31' E 023°52'0 0.0
2015-Jun-14 02:25N 37°31' E 023°52'0 0.0
2015-Jun-14 01:31N 37°31' E 023°52'0 0.0
2015-Jun-14 00:31N 37°31' E 023°52'0 0.0
2015-Jun-13 23:31N 37°31' E 023°52'0 0.0
2015-Jun-13 22:31N 37°31' E 023°52'0 0.0
2015-Jun-13 21:19N 37°31' E 023°52'0 0.3
2015-Jun-13 20:34N 37°31' E 023°53'  
2015-Jun-10 13:33N 37°33' E 024°03'1712.5
2015-Jun-10 12:13N 37°18' E 023°55'912.6
2015-Jun-10 11:29N 37°10' E 023°50'1213.0
2015-Jun-10 10:33N 36°59' E 023°42'  

Dump ship's entire track history